createdAt,value
2022-11-20T00:01:26.208Z,10.05
2022-11-20T00:03:55.591Z,10.95
2022-11-20T00:06:24.700Z,12.02
2022-11-20T00:08:53.065Z,18.38
2022-11-20T00:11:23.056Z,10.88
2022-11-20T00:13:54.144Z,12.40
2022-11-20T00:16:23.680Z,12.10
2022-11-20T00:18:51.867Z,12.98
2022-11-20T00:21:22.002Z,8.93
2022-11-20T00:23:51.035Z,15.85
2022-11-20T00:26:20.940Z,13.10
2022-11-20T00:28:54.621Z,8.55
2022-11-20T00:31:23.143Z,11.60
2022-11-20T00:33:51.333Z,9.82
2022-11-20T00:36:20.952Z,9.93
2022-11-20T00:38:49.428Z,12.60
2022-11-20T00:41:18.255Z,11.40
2022-11-20T00:43:46.576Z,10.95
2022-11-20T00:46:18.213Z,7.57
2022-11-20T00:48:47.072Z,10.77
2022-11-20T00:51:16.586Z,9.18
2022-11-20T00:53:45.025Z,13.80
2022-11-20T00:56:14.984Z,15.02
2022-11-20T00:58:44.649Z,9.15
2022-11-20T01:01:16.423Z,9.55
2022-11-20T01:03:46.360Z,10.90
2022-11-20T01:06:17.202Z,8.93
2022-11-20T01:08:46.064Z,13.50
2022-11-20T01:11:16.284Z,15.55
2022-11-20T01:13:46.204Z,12.10
2022-11-20T01:16:17.923Z,7.18
2022-11-20T01:18:49.573Z,15.27
2022-11-20T01:21:19.015Z,15.90
2022-11-20T01:23:47.572Z,14.30
2022-11-20T01:26:18.241Z,11.13
2022-11-20T01:28:46.463Z,13.05
2022-11-20T01:31:18.485Z,15.30
2022-11-20T01:33:48.049Z,12.27
2022-11-20T01:36:17.159Z,16.67
2022-11-20T01:38:45.617Z,12.60
2022-11-20T01:41:35.820Z,15.70
2022-11-20T01:44:04.818Z,18.77
2022-11-20T01:46:34.973Z,16.42
2022-11-20T01:49:05.591Z,13.90
2022-11-20T01:51:36.267Z,16.35
2022-11-20T01:54:09.078Z,11.18
2022-11-20T01:56:40.324Z,15.13
2022-11-20T01:59:09.973Z,14.90
2022-11-20T02:01:40.282Z,12.02
2022-11-20T02:04:10.332Z,13.45
2022-11-20T02:06:42.313Z,12.60
2022-11-20T02:09:10.652Z,11.63
2022-11-20T02:11:38.877Z,11.55
2022-11-20T02:14:06.098Z,12.23
2022-11-20T02:16:39.578Z,12.55
2022-11-20T02:19:12.281Z,16.13
2022-11-20T02:21:45.535Z,9.20
2022-11-20T02:26:48.389Z,17.38
2022-11-20T02:29:18.885Z,13.82
2022-11-20T02:31:47.742Z,10.43
2022-11-20T02:34:16.131Z,14.07
2022-11-20T02:36:44.617Z,11.93
2022-11-20T02:39:18.003Z,14.25
2022-11-20T02:41:46.380Z,8.55
2022-11-20T02:44:14.575Z,11.27
2022-11-20T02:46:42.965Z,14.75
2022-11-20T02:49:11.310Z,13.45
2022-11-20T02:51:39.582Z,16.17
2022-11-20T02:54:07.888Z,18.80
2022-11-20T02:56:40.270Z,16.88
2022-11-20T02:59:08.849Z,9.53
2022-11-20T03:01:37.213Z,19.95
2022-11-20T03:04:05.844Z,14.40
2022-11-20T03:06:34.661Z,14.93
2022-11-20T03:09:02.932Z,13.68
2022-11-20T03:11:31.394Z,12.73
2022-11-20T03:14:04.446Z,14.43
2022-11-20T03:16:33.416Z,18.38
2022-11-20T03:19:02.022Z,12.65
2022-11-20T03:21:31.906Z,11.75
2022-11-20T03:24:00.155Z,14.50
2022-11-20T03:26:29.006Z,12.68
2022-11-20T03:28:58.682Z,15.75
2022-11-20T03:31:29.810Z,15.27
2022-11-20T03:33:59.068Z,14.05
2022-11-20T03:36:27.794Z,18.52
2022-11-20T03:38:57.195Z,17.10
2022-11-20T03:41:27.414Z,11.30
2022-11-20T03:43:56.893Z,14.73
2022-11-20T03:46:25.472Z,13.30
2022-11-20T03:48:55.297Z,13.68
2022-11-20T03:51:25.244Z,12.77
2022-11-20T03:53:55.104Z,16.55
2022-11-20T03:56:25.676Z,16.48
2022-11-20T03:58:54.077Z,11.95
2022-11-20T04:01:23.830Z,15.95
2022-11-20T04:03:55.696Z,15.00
2022-11-20T04:06:24.919Z,14.50
2022-11-20T04:08:54.140Z,13.50
2022-11-20T04:11:24.448Z,15.75
2022-11-20T04:13:54.092Z,16.60
2022-11-20T04:16:23.289Z,16.77
2022-11-20T04:18:56.850Z,18.45
2022-11-20T04:21:25.405Z,18.00
2022-11-20T04:23:54.608Z,13.02
2022-11-20T04:26:23.976Z,16.10
2022-11-20T04:28:52.433Z,14.95
2022-11-20T04:31:22.664Z,14.55
2022-11-20T04:33:51.425Z,18.05
2022-11-20T04:36:23.169Z,15.15
2022-11-20T04:38:56.833Z,16.08
2022-11-20T04:41:27.238Z,15.18
2022-11-20T04:44:00.764Z,18.90
2022-11-20T04:46:30.466Z,16.30
2022-11-20T04:48:58.973Z,14.77
2022-11-20T04:51:28.966Z,16.35
2022-11-20T04:53:57.109Z,19.23
2022-11-20T04:56:25.400Z,21.98
2022-11-20T04:58:53.773Z,16.63
2022-11-20T05:01:23.437Z,14.40
2022-11-20T05:03:52.040Z,20.55
2022-11-20T05:06:22.229Z,19.83
2022-11-20T05:08:51.840Z,17.13
2022-11-20T05:11:22.302Z,15.88
2022-11-20T05:13:51.154Z,19.00
2022-11-20T05:16:20.977Z,19.83
2022-11-20T05:18:49.833Z,11.55
2022-11-20T05:21:18.818Z,12.73
2022-11-20T05:23:48.070Z,15.73
2022-11-20T05:26:19.687Z,20.98
2022-11-20T05:28:48.207Z,19.63
2022-11-20T05:31:23.377Z,18.52
2022-11-20T05:33:55.025Z,12.88
2022-11-20T05:36:23.734Z,18.13
2022-11-20T05:38:54.411Z,17.52
2022-11-20T05:41:26.813Z,19.33
2022-11-20T05:43:55.280Z,19.27
2022-11-20T05:46:28.301Z,18.65
2022-11-20T05:48:58.247Z,15.88
2022-11-20T05:51:27.328Z,19.88
2022-11-20T05:53:56.232Z,16.95
2022-11-20T05:56:24.796Z,18.00
2022-11-20T05:58:54.476Z,19.30
2022-11-20T06:01:24.714Z,24.08
2022-11-20T06:03:53.226Z,19.08
2022-11-20T06:06:22.112Z,19.15
2022-11-20T06:08:50.690Z,20.60
2022-11-20T06:11:19.300Z,18.73
2022-11-20T06:13:48.111Z,24.27
2022-11-20T06:16:20.109Z,18.55
2022-11-20T06:18:48.846Z,17.15
2022-11-20T06:21:18.694Z,19.58
2022-11-20T06:23:47.490Z,18.48
2022-11-20T06:26:17.562Z,17.55
2022-11-20T06:28:45.961Z,19.13
2022-11-20T06:31:15.776Z,19.33
2022-11-20T06:33:45.839Z,19.75
2022-11-20T06:36:15.304Z,15.68
2022-11-20T06:38:43.516Z,18.75
2022-11-20T06:41:14.429Z,20.05
2022-11-20T06:43:42.950Z,22.17
2022-11-20T06:46:12.631Z,25.23
2022-11-20T06:48:41.080Z,21.17
2022-11-20T06:51:11.319Z,18.65
2022-11-20T06:53:39.657Z,18.23
2022-11-20T06:56:08.611Z,15.38
2022-11-20T06:58:37.980Z,19.70
2022-11-20T07:01:08.330Z,18.98
2022-11-20T07:03:36.868Z,19.42
2022-11-20T07:06:06.003Z,17.63
2022-11-20T07:08:36.481Z,17.17
2022-11-20T07:11:06.768Z,20.35
2022-11-20T07:13:35.157Z,14.50
2022-11-20T07:16:04.679Z,20.33
2022-11-20T07:18:32.999Z,18.40
2022-11-20T07:21:03.415Z,18.73
2022-11-20T07:23:31.700Z,18.52
2022-11-20T07:26:05.276Z,22.95
2022-11-20T07:28:33.568Z,19.38
2022-11-20T07:31:02.037Z,18.38
2022-11-20T07:33:30.423Z,20.92
2022-11-20T07:36:01.025Z,23.98
2022-11-20T07:38:29.358Z,15.85
2022-11-20T07:40:58.720Z,25.05
2022-11-20T07:43:28.473Z,17.90
2022-11-20T07:45:57.653Z,23.98
2022-11-20T07:48:25.919Z,23.50
2022-11-20T07:50:56.125Z,21.98
2022-11-20T07:53:24.576Z,16.77
2022-11-20T07:55:53.680Z,21.50
2022-11-20T07:58:22.262Z,22.02
2022-11-20T08:00:52.116Z,29.10
2022-11-20T08:03:24.908Z,21.13
2022-11-20T08:05:53.648Z,21.75
2022-11-20T08:08:22.277Z,24.05
2022-11-20T08:10:50.526Z,19.50
2022-11-20T08:13:36.691Z,32.47
2022-11-20T08:16:06.855Z,23.45
2022-11-20T08:18:35.179Z,25.83
2022-11-20T08:21:05.219Z,30.00
2022-11-20T08:23:33.835Z,20.60
2022-11-20T08:26:02.081Z,23.33
2022-11-20T08:28:30.461Z,23.67
2022-11-20T08:31:01.228Z,24.08
2022-11-20T08:33:31.304Z,23.65
2022-11-20T08:36:02.116Z,17.95
2022-11-20T08:38:30.778Z,21.35
2022-11-20T08:41:17.244Z,19.83
2022-11-20T08:43:45.538Z,26.85
2022-11-20T08:46:13.739Z,22.35
2022-11-20T08:48:43.399Z,21.98
2022-11-20T08:51:12.078Z,20.55
2022-11-20T08:53:40.923Z,26.27
2022-11-20T08:56:10.585Z,26.52
2022-11-20T08:59:02.039Z,26.88
2022-11-20T09:01:28.336Z,21.33
2022-11-20T09:04:00.749Z,21.67
2022-11-20T09:06:29.155Z,20.92
2022-11-20T09:09:02.056Z,21.10
2022-11-20T09:11:33.466Z,16.65
2022-11-20T09:14:03.844Z,27.30
2022-11-20T09:16:32.128Z,29.63
2022-11-20T09:19:33.613Z,27.02
2022-11-20T09:21:50.121Z,28.58
2022-11-20T09:24:18.684Z,34.03
2022-11-20T09:26:47.035Z,25.83
2022-11-20T09:29:15.375Z,23.38
2022-11-20T09:31:43.675Z,23.48
2022-11-20T09:34:13.360Z,18.70
2022-11-20T09:36:41.542Z,24.60
2022-11-20T09:39:09.855Z,17.77
2022-11-20T09:42:02.586Z,25.63
2022-11-20T09:44:42.785Z,25.23
2022-11-20T09:47:15.323Z,29.80
2022-11-20T09:49:59.854Z,31.52
2022-11-20T09:52:35.491Z,27.60
2022-11-20T09:55:05.327Z,35.25
2022-11-20T09:57:37.106Z,26.13
2022-11-20T10:00:08.060Z,25.90
2022-11-20T10:02:41.931Z,26.95
2022-11-20T10:05:15.260Z,30.50
2022-11-20T10:10:17.196Z,22.00
2022-11-20T10:13:01.776Z,25.17
2022-11-20T10:15:36.329Z,28.92
2022-11-20T10:18:23.458Z,26.02
2022-11-20T10:20:58.615Z,22.65
2022-11-20T10:23:52.614Z,26.38
2022-11-20T10:26:25.072Z,29.23
2022-11-20T10:29:08.486Z,31.93
2022-11-20T10:31:39.326Z,29.13
2022-11-20T10:34:12.409Z,30.02
2022-11-20T10:36:46.988Z,28.95
2022-11-20T10:39:20.474Z,34.50
2022-11-20T10:41:52.526Z,33.00
2022-11-20T10:44:44.227Z,23.73
2022-11-20T10:47:16.270Z,25.42
2022-11-20T10:49:45.245Z,26.10
2022-11-20T10:52:23.980Z,37.65
2022-11-20T10:55:02.079Z,31.58
2022-11-20T10:57:43.138Z,38.00
2022-11-20T11:00:13.400Z,34.00
2022-11-20T11:02:44.834Z,39.28
2022-11-20T11:05:20.190Z,29.65
2022-11-20T11:07:52.333Z,38.08
2022-11-20T11:10:23.853Z,31.10
2022-11-20T11:12:52.229Z,30.73
2022-11-20T11:15:29.034Z,36.00
2022-11-20T11:17:57.498Z,33.15
2022-11-20T11:20:27.221Z,45.13
2022-11-20T11:22:59.309Z,29.15
2022-11-20T11:25:30.924Z,38.70
2022-11-20T11:28:01.411Z,34.42
2022-11-20T11:30:42.606Z,41.35
2022-11-20T11:33:13.900Z,40.80
2022-11-20T11:35:51.067Z,43.97
2022-11-20T11:38:24.747Z,44.25
2022-11-20T11:40:56.047Z,39.58
2022-11-20T11:43:40.199Z,39.97
2022-11-20T11:46:25.201Z,43.95
2022-11-20T11:48:58.486Z,52.10
2022-11-20T11:51:30.283Z,46.72
2022-11-20T11:54:01.427Z,47.03
2022-11-20T11:56:30.728Z,29.33
2022-11-20T11:59:01.772Z,44.53
2022-11-20T12:01:34.018Z,39.35
2022-11-20T12:04:06.569Z,41.72
2022-11-20T12:06:35.497Z,42.55
2022-11-20T12:09:07.713Z,46.10
2022-11-20T12:11:39.811Z,51.05
2022-11-20T12:14:14.806Z,50.50
2022-11-20T12:16:43.365Z,38.63
2022-11-20T12:19:13.780Z,44.80
2022-11-20T12:21:52.023Z,34.10
2022-11-20T12:24:45.408Z,35.25
2022-11-20T12:27:41.347Z,36.47
2022-11-20T12:30:11.928Z,42.58
2022-11-20T12:33:07.344Z,48.45
2022-11-20T12:35:47.365Z,38.03
2022-11-20T12:38:34.815Z,45.28
2022-11-20T12:41:10.559Z,41.78
2022-11-20T12:43:59.237Z,48.35
2022-11-20T12:46:34.037Z,51.63
2022-11-20T12:49:15.539Z,50.45
2022-11-20T12:52:14.484Z,41.95
2022-11-20T12:55:08.524Z,42.35
2022-11-20T12:57:44.172Z,48.58
2022-11-20T13:00:16.845Z,61.53
2022-11-20T13:03:12.969Z,57.30
2022-11-20T13:05:49.436Z,57.17
2022-11-20T13:08:22.902Z,56.30
2022-11-20T13:10:54.939Z,54.10
2022-11-20T13:13:26.666Z,51.28
2022-11-20T13:15:59.370Z,47.00
2022-11-20T13:18:27.938Z,52.55
2022-11-20T13:20:56.129Z,48.40
2022-11-20T13:23:28.664Z,65.43
2022-11-20T13:26:08.036Z,51.10
2022-11-20T13:28:38.367Z,61.95
2022-11-20T13:31:08.028Z,50.22
2022-11-20T13:33:37.832Z,62.60
2022-11-20T13:36:08.048Z,60.22
2022-11-20T13:38:46.330Z,70.88
2022-11-20T13:41:32.678Z,42.60
2022-11-20T13:44:09.533Z,57.60
2022-11-20T13:46:39.960Z,58.15
2022-11-20T13:49:12.797Z,56.17
2022-11-20T13:51:45.991Z,48.78
2022-11-20T13:54:36.682Z,65.53
2022-11-20T13:57:21.749Z,58.95
2022-11-20T13:59:59.656Z,50.38
2022-11-20T14:02:30.488Z,59.78
2022-11-20T14:05:01.214Z,60.80
2022-11-20T14:07:37.154Z,55.95
2022-11-20T14:10:06.288Z,56.55
2022-11-20T14:12:38.042Z,58.45
2022-11-20T14:15:08.425Z,76.32
2022-11-20T14:17:37.803Z,55.10
2022-11-20T14:20:08.500Z,58.15
2022-11-20T14:22:36.774Z,63.53
2022-11-20T14:25:08.115Z,73.47
2022-11-20T14:27:39.035Z,62.97
2022-11-20T14:30:15.967Z,61.00
2022-11-20T14:32:44.928Z,63.95
2022-11-20T14:35:20.139Z,66.82
2022-11-20T14:37:48.563Z,58.13
2022-11-20T14:40:31.415Z,65.38
2022-11-20T14:43:00.654Z,58.38
2022-11-20T14:45:30.390Z,68.18
2022-11-20T14:48:00.171Z,54.67
2022-11-20T14:50:29.572Z,67.53
2022-11-20T14:53:00.325Z,68.90
2022-11-20T14:55:30.449Z,56.00
2022-11-20T14:57:59.962Z,71.65
2022-11-20T15:00:30.644Z,63.47
2022-11-20T15:02:59.162Z,55.55
2022-11-20T15:05:29.277Z,63.10
2022-11-20T15:08:08.740Z,64.65
2022-11-20T15:10:38.192Z,64.93
2022-11-20T15:13:12.580Z,57.45
2022-11-20T15:15:47.360Z,69.93
2022-11-20T15:18:16.942Z,58.97
2022-11-20T15:20:45.775Z,58.90
2022-11-20T15:23:17.128Z,54.55
2022-11-20T15:25:45.455Z,82.03
2022-11-20T15:28:18.207Z,61.80
2022-11-20T15:30:48.559Z,55.50
2022-11-20T15:33:17.222Z,61.47
2022-11-20T15:35:46.346Z,66.60
2022-11-20T15:38:14.598Z,73.72
2022-11-20T15:40:43.005Z,64.65
2022-11-20T15:43:13.602Z,67.43
2022-11-20T15:45:44.414Z,70.88
2022-11-20T15:48:16.264Z,72.47
2022-11-20T15:50:51.835Z,70.85
2022-11-20T15:53:20.209Z,50.95
2022-11-20T15:55:48.529Z,72.55
2022-11-20T15:58:17.807Z,71.80
2022-11-20T16:00:46.753Z,62.97
2022-11-20T16:03:20.612Z,68.20
2022-11-20T16:05:49.455Z,70.57
2022-11-20T16:08:17.724Z,81.15
2022-11-20T16:10:46.276Z,75.60
2022-11-20T16:13:33.916Z,68.45
2022-11-20T16:16:06.565Z,72.93
2022-11-20T16:18:36.534Z,66.32
2022-11-20T16:21:05.153Z,71.38
2022-11-20T16:23:34.186Z,60.50
2022-11-20T16:26:11.828Z,63.65
2022-11-20T16:28:40.545Z,67.30
2022-11-20T16:31:13.437Z,74.50
2022-11-20T16:33:44.078Z,71.82
2022-11-20T16:36:13.408Z,67.55
2022-11-20T16:38:42.336Z,61.75
2022-11-20T16:41:14.690Z,72.43
2022-11-20T16:43:48.180Z,71.47
2022-11-20T16:46:17.108Z,70.00
2022-11-20T16:48:47.117Z,57.88
2022-11-20T16:51:15.841Z,59.33
2022-11-20T16:53:44.463Z,60.75
2022-11-20T16:56:13.674Z,50.88
2022-11-20T16:58:42.144Z,67.43
2022-11-20T17:01:11.909Z,57.33
2022-11-20T17:03:41.008Z,71.45
2022-11-20T17:06:15.844Z,70.70
2022-11-20T17:08:45.191Z,74.35
2022-11-20T17:11:15.236Z,69.85
2022-11-20T17:13:44.193Z,57.30
2022-11-20T17:16:13.839Z,75.88
2022-11-20T17:18:44.352Z,58.13
2022-11-20T17:21:14.682Z,66.63
2022-11-20T17:23:44.533Z,65.68
2022-11-20T17:26:17.779Z,68.60
2022-11-20T17:31:16.534Z,58.33
2022-11-20T17:33:47.425Z,49.90
2022-11-20T17:36:19.517Z,61.92
2022-11-20T17:38:48.656Z,74.55
2022-11-20T17:41:18.719Z,68.10
2022-11-20T17:43:47.728Z,74.88
2022-11-20T17:46:18.904Z,51.83
2022-11-20T17:48:48.007Z,50.95
2022-11-20T17:51:20.186Z,67.80
2022-11-20T17:53:50.253Z,80.80
2022-11-20T17:56:36.821Z,64.50
2022-11-20T17:59:06.703Z,57.45
2022-11-20T18:01:35.478Z,72.28
2022-11-20T18:04:04.665Z,76.15
2022-11-20T18:06:35.021Z,66.43
2022-11-20T18:09:05.266Z,70.53
2022-11-20T18:11:34.999Z,56.28
2022-11-20T18:14:22.779Z,69.13
2022-11-20T18:16:53.510Z,51.35
2022-11-20T18:19:23.844Z,32.58
2022-11-20T18:21:53.993Z,58.67
2022-11-20T18:24:23.106Z,56.88
2022-11-20T18:26:51.996Z,69.25
2022-11-20T18:29:20.706Z,67.82
2022-11-20T18:31:49.384Z,73.07
2022-11-20T18:34:18.432Z,62.25
2022-11-20T18:36:47.373Z,75.55
2022-11-20T18:39:17.797Z,75.03
2022-11-20T18:42:03.665Z,75.88
2022-11-20T18:44:50.656Z,81.90
2022-11-20T18:47:20.584Z,62.75
2022-11-20T18:49:52.819Z,58.88
2022-11-20T18:52:23.203Z,66.93
2022-11-20T18:54:53.157Z,74.78
2022-11-20T18:57:24.164Z,58.00
2022-11-20T18:59:53.749Z,77.80
2022-11-20T19:02:25.650Z,66.40
2022-11-20T19:04:54.218Z,69.80
2022-11-20T19:07:24.425Z,58.47
2022-11-20T19:09:57.491Z,73.65
2022-11-20T19:12:29.309Z,55.30
2022-11-20T19:14:58.316Z,63.53
2022-11-20T19:17:26.791Z,72.07
2022-11-20T19:19:55.837Z,80.13
2022-11-20T19:22:24.186Z,60.85
2022-11-20T19:24:54.162Z,55.05
2022-11-20T19:27:22.662Z,68.32
2022-11-20T19:29:51.249Z,67.15
2022-11-20T19:32:19.926Z,67.70
2022-11-20T19:34:48.245Z,60.83
2022-11-20T19:37:16.694Z,60.65
2022-11-20T19:39:45.244Z,67.25
2022-11-20T19:42:14.920Z,60.53
2022-11-20T19:44:43.316Z,66.95
2022-11-20T19:47:14.744Z,62.47
2022-11-20T19:49:43.483Z,65.03
2022-11-20T19:52:11.763Z,57.67
2022-11-20T19:54:40.137Z,65.78
2022-11-20T19:57:08.571Z,62.22
2022-11-20T19:59:38.319Z,51.35
2022-11-20T20:02:06.658Z,53.80
2022-11-20T20:04:35.140Z,51.80
2022-11-20T20:07:06.462Z,54.42
2022-11-20T20:09:35.132Z,65.75
2022-11-20T20:12:03.703Z,60.17
2022-11-20T20:14:32.283Z,59.95
2022-11-20T20:17:01.898Z,67.00
2022-11-20T20:19:30.108Z,43.38
2022-11-20T20:21:58.316Z,56.05
2022-11-20T20:24:26.704Z,48.70
2022-11-20T20:26:58.138Z,51.28
2022-11-20T20:29:26.869Z,61.78
2022-11-20T20:31:55.084Z,56.20
2022-11-20T20:34:24.788Z,51.78
2022-11-20T20:36:53.086Z,46.65
2022-11-20T20:39:21.486Z,53.72
2022-11-20T20:41:49.882Z,61.55
2022-11-20T20:44:35.956Z,55.05
2022-11-20T20:47:04.184Z,55.90
2022-11-20T20:49:34.752Z,51.28
2022-11-20T20:52:03.206Z,62.28
2022-11-20T20:54:34.345Z,30.95
2022-11-20T20:57:03.012Z,65.57
2022-11-20T20:59:31.250Z,61.72
2022-11-20T21:01:59.543Z,56.88
2022-11-20T21:04:27.913Z,52.13
2022-11-20T21:06:57.595Z,56.35
2022-11-20T21:09:26.010Z,53.63
2022-11-20T21:11:54.807Z,46.97
2022-11-20T21:14:23.538Z,60.67
2022-11-20T21:16:51.994Z,51.40
2022-11-20T21:19:20.399Z,65.32
2022-11-20T21:21:59.851Z,49.63
2022-11-20T21:24:30.357Z,60.00
2022-11-20T21:26:59.103Z,55.35
2022-11-20T21:29:29.213Z,55.22
2022-11-20T21:31:58.045Z,44.10
2022-11-20T21:34:26.785Z,35.17
2022-11-20T21:36:55.140Z,47.55
2022-11-20T21:39:23.471Z,45.50
2022-11-20T21:41:53.027Z,44.35
2022-11-20T21:44:31.022Z,48.85
2022-11-20T21:47:00.341Z,37.08
2022-11-20T21:49:28.605Z,54.72
2022-11-20T21:51:57.368Z,54.35
2022-11-20T21:54:25.895Z,49.28
2022-11-20T21:56:55.635Z,44.85
2022-11-20T21:59:23.908Z,60.95
2022-11-20T22:01:52.352Z,44.70
2022-11-20T22:04:21.504Z,51.03
2022-11-20T22:06:49.788Z,51.95
2022-11-20T22:09:18.184Z,48.17
2022-11-20T22:11:46.428Z,41.47
2022-11-20T22:14:21.309Z,47.42
2022-11-20T22:16:50.412Z,48.45
2022-11-20T22:19:19.288Z,54.20
2022-11-20T22:21:48.125Z,42.72
2022-11-20T22:24:18.285Z,50.65
2022-11-20T22:26:46.874Z,55.90
2022-11-20T22:29:17.771Z,40.42
2022-11-20T22:31:46.326Z,31.02
2022-11-20T22:34:15.323Z,29.48
2022-11-20T22:36:43.655Z,39.05
2022-11-20T22:39:11.911Z,53.08
2022-11-20T22:41:40.083Z,45.78
2022-11-20T22:44:09.287Z,40.58
2022-11-20T22:46:39.262Z,42.53
2022-11-20T22:49:09.810Z,44.40
2022-11-20T22:51:40.111Z,37.70
2022-11-20T22:54:10.037Z,49.72
2022-11-20T22:56:38.227Z,44.00
2022-11-20T22:59:06.466Z,32.55
2022-11-20T23:01:36.896Z,42.05
2022-11-20T23:04:08.295Z,37.10
2022-11-20T23:06:36.762Z,36.22
2022-11-20T23:09:05.560Z,47.53
2022-11-20T23:11:35.295Z,35.75
2022-11-20T23:14:05.734Z,42.97
2022-11-20T23:16:35.225Z,37.50
2022-11-20T23:19:07.485Z,40.45
2022-11-20T23:21:37.104Z,36.47
2022-11-20T23:24:06.482Z,37.85
2022-11-20T23:26:36.839Z,34.60
2022-11-20T23:29:06.097Z,47.30
2022-11-20T23:31:36.005Z,44.05
2022-11-20T23:34:04.590Z,39.88
2022-11-20T23:36:34.354Z,44.65
2022-11-20T23:39:02.512Z,38.00
2022-11-20T23:41:30.828Z,35.85
2022-11-20T23:43:59.050Z,42.70
2022-11-20T23:46:27.220Z,50.42
2022-11-20T23:48:55.524Z,38.47
2022-11-20T23:51:23.743Z,46.53
2022-11-20T23:53:53.337Z,38.35
2022-11-20T23:56:21.819Z,47.80
2022-11-20T23:58:50.072Z,44.72
